createdAt,value
2022-10-09T00:01:43.189Z,12.57
2022-10-09T00:04:46.087Z,14.47
2022-10-09T00:07:48.636Z,13.43
2022-10-09T00:10:51.815Z,13.73
2022-10-09T00:13:55.483Z,11.98
2022-10-09T00:16:58.405Z,12.00
2022-10-09T00:20:01.040Z,16.63
2022-10-09T00:23:04.184Z,13.18
2022-10-09T00:26:07.242Z,12.73
2022-10-09T00:29:10.021Z,11.18
2022-10-09T00:32:12.553Z,11.98
2022-10-09T00:35:15.390Z,13.70
2022-10-09T00:38:17.975Z,12.00
2022-10-09T00:41:27.255Z,11.32
2022-10-09T00:44:57.233Z,12.02
2022-10-09T00:48:05.613Z,13.60
2022-10-09T00:51:08.220Z,13.43
2022-10-09T00:54:13.237Z,13.82
2022-10-09T00:57:15.756Z,13.43
2022-10-09T01:00:18.764Z,16.67
2022-10-09T01:03:21.308Z,14.00
2022-10-09T01:06:36.523Z,12.47
2022-10-09T01:09:45.272Z,13.73
2022-10-09T01:12:54.659Z,12.48
2022-10-09T01:16:03.956Z,15.40
2022-10-09T01:19:12.891Z,12.88
2022-10-09T01:22:46.747Z,13.47
2022-10-09T01:25:58.985Z,13.45
2022-10-09T01:29:05.546Z,12.60
2022-10-09T01:32:09.712Z,13.70
2022-10-09T01:35:13.057Z,14.00
2022-10-09T01:38:16.938Z,13.00
2022-10-09T01:41:20.056Z,14.90
2022-10-09T01:44:25.807Z,19.25
2022-10-09T01:47:28.427Z,14.13
2022-10-09T01:50:34.657Z,13.43
2022-10-09T01:53:37.409Z,16.97
2022-10-09T01:56:41.647Z,16.70
2022-10-09T01:59:45.184Z,16.37
2022-10-09T02:02:49.109Z,17.55
2022-10-09T02:05:53.143Z,15.43
2022-10-09T02:08:56.330Z,16.20
2022-10-09T02:12:04.268Z,17.15
2022-10-09T02:15:07.662Z,16.85
2022-10-09T02:18:13.365Z,20.42
2022-10-09T02:21:24.185Z,18.67
2022-10-09T02:24:27.575Z,23.33
2022-10-09T02:27:30.494Z,19.33
2022-10-09T02:30:44.576Z,23.15
2022-10-09T02:33:56.747Z,21.20
2022-10-09T02:36:59.724Z,19.17
2022-10-09T02:40:05.851Z,18.23
2022-10-09T02:43:11.305Z,19.00
2022-10-09T02:46:14.066Z,16.40
2022-10-09T02:49:17.026Z,16.27
2022-10-09T02:52:19.666Z,17.80
2022-10-09T02:55:22.431Z,17.23
2022-10-09T02:58:25.243Z,17.92
2022-10-09T03:01:28.117Z,20.25
2022-10-09T03:04:30.567Z,16.95
2022-10-09T03:07:33.311Z,20.50
2022-10-09T03:10:40.019Z,18.20
2022-10-09T03:13:43.247Z,19.02
2022-10-09T03:16:45.775Z,19.48
2022-10-09T03:19:48.678Z,18.45
2022-10-09T03:22:51.451Z,18.67
2022-10-09T03:26:05.822Z,21.27
2022-10-09T03:29:08.384Z,18.30
2022-10-09T03:32:11.278Z,22.73
2022-10-09T03:35:13.932Z,19.42
2022-10-09T03:38:17.151Z,17.70
2022-10-09T03:41:19.677Z,18.80
2022-10-09T03:44:22.412Z,20.12
2022-10-09T03:47:24.927Z,18.62
2022-10-09T03:50:27.837Z,18.75
2022-10-09T03:53:30.987Z,18.65
2022-10-09T03:56:33.728Z,20.20
2022-10-09T03:59:36.244Z,18.98
2022-10-09T04:02:41.281Z,19.30
2022-10-09T04:05:44.179Z,19.40
2022-10-09T04:08:46.793Z,22.48
2022-10-09T04:11:49.910Z,20.37
2022-10-09T04:14:52.413Z,20.33
2022-10-09T04:17:55.188Z,20.70
2022-10-09T04:20:58.091Z,21.23
2022-10-09T04:24:03.425Z,20.02
2022-10-09T04:27:05.920Z,18.53
2022-10-09T04:30:09.631Z,19.08
2022-10-09T04:33:13.231Z,18.92
2022-10-09T04:36:16.576Z,20.92
2022-10-09T04:39:19.149Z,20.65
2022-10-09T04:42:21.923Z,18.30
2022-10-09T04:45:24.551Z,20.88
2022-10-09T04:48:27.539Z,18.05
2022-10-09T04:51:30.289Z,18.17
2022-10-09T04:54:33.098Z,20.37
2022-10-09T04:57:35.741Z,16.93
2022-10-09T05:00:46.172Z,24.20
2022-10-09T05:03:48.936Z,23.05
2022-10-09T05:06:51.773Z,20.48
2022-10-09T05:09:55.394Z,25.42
2022-10-09T05:12:59.162Z,20.20
2022-10-09T05:16:07.619Z,20.95
2022-10-09T05:19:10.599Z,26.67
2022-10-09T05:22:13.163Z,20.48
2022-10-09T05:25:16.009Z,22.50
2022-10-09T05:28:18.520Z,22.60
2022-10-09T05:31:27.288Z,19.10
2022-10-09T05:34:29.868Z,19.75
2022-10-09T05:37:32.732Z,22.58
2022-10-09T05:40:35.310Z,19.95
2022-10-09T05:43:40.492Z,20.83
2022-10-09T05:46:43.186Z,20.02
2022-10-09T05:49:47.276Z,17.80
2022-10-09T05:52:50.117Z,20.42
2022-10-09T05:55:53.160Z,18.37
2022-10-09T05:59:01.056Z,17.27
2022-10-09T06:02:04.481Z,17.80
2022-10-09T06:05:07.555Z,20.20
2022-10-09T06:08:10.031Z,19.33
2022-10-09T06:11:15.740Z,18.40
2022-10-09T06:14:18.719Z,22.80
2022-10-09T06:17:21.457Z,18.05
2022-10-09T06:20:23.936Z,18.08
2022-10-09T06:23:27.478Z,17.70
2022-10-09T06:26:30.862Z,18.25
2022-10-09T06:29:33.836Z,20.93
2022-10-09T06:32:36.554Z,17.08
2022-10-09T06:35:39.463Z,17.30
2022-10-09T06:38:42.490Z,17.55
2022-10-09T06:41:45.245Z,17.70
2022-10-09T06:44:53.318Z,19.37
2022-10-09T06:47:56.055Z,17.50
2022-10-09T06:51:09.489Z,16.02
2022-10-09T06:54:15.203Z,16.10
2022-10-09T06:57:17.655Z,15.77
2022-10-09T07:00:22.671Z,15.10
2022-10-09T07:03:25.197Z,16.77
2022-10-09T07:06:30.520Z,14.70
2022-10-09T07:09:33.047Z,15.35
2022-10-09T07:12:36.869Z,15.80
2022-10-09T07:15:45.895Z,14.83
2022-10-09T07:18:48.745Z,12.85
2022-10-09T07:21:51.309Z,12.65
2022-10-09T07:24:54.059Z,13.95
2022-10-09T07:27:56.554Z,12.93
2022-10-09T07:31:03.114Z,13.03
2022-10-09T07:34:06.395Z,14.20
2022-10-09T07:37:09.127Z,11.43
2022-10-09T07:40:12.105Z,11.65
2022-10-09T07:43:15.257Z,11.60
2022-10-09T07:46:20.309Z,11.77
2022-10-09T07:49:23.111Z,9.77
2022-10-09T07:52:25.610Z,13.88
2022-10-09T07:55:28.489Z,10.98
2022-10-09T07:58:31.509Z,12.90
2022-10-09T08:01:35.373Z,9.53
2022-10-09T08:04:38.332Z,10.75
2022-10-09T08:07:40.876Z,11.00
2022-10-09T08:10:43.664Z,14.77
2022-10-09T08:13:46.915Z,10.10
2022-10-09T08:16:49.685Z,10.10
2022-10-09T08:19:52.179Z,13.15
2022-10-09T08:22:54.900Z,11.98
2022-10-09T08:25:57.600Z,13.23
2022-10-09T08:29:02.614Z,10.77
2022-10-09T08:32:05.103Z,12.10
2022-10-09T08:35:08.293Z,9.63
2022-10-09T08:38:25.391Z,10.88
2022-10-09T08:41:33.489Z,12.23
2022-10-09T08:44:42.943Z,11.55
2022-10-09T08:47:56.978Z,12.17
2022-10-09T08:51:00.266Z,10.10
2022-10-09T08:54:25.006Z,11.23
2022-10-09T08:57:31.455Z,9.73
2022-10-09T09:00:45.051Z,12.20
2022-10-09T09:03:58.459Z,11.83
2022-10-09T09:07:35.517Z,10.40
2022-10-09T09:10:41.963Z,12.65
2022-10-09T09:13:59.967Z,11.18
2022-10-09T09:17:20.001Z,11.55
2022-10-09T09:20:26.289Z,11.17
2022-10-09T09:23:32.937Z,10.57
2022-10-09T09:26:35.851Z,10.38
2022-10-09T09:29:47.452Z,12.25
2022-10-09T09:32:59.268Z,11.05
2022-10-09T09:36:12.744Z,10.57
2022-10-09T09:42:38.177Z,9.18
2022-10-09T09:45:41.312Z,9.38
2022-10-09T09:48:48.409Z,10.73
2022-10-09T09:51:51.885Z,12.57
2022-10-09T09:54:56.984Z,12.13
2022-10-09T09:58:07.744Z,11.02
2022-10-09T10:01:36.791Z,9.75
2022-10-09T10:04:53.223Z,16.02
2022-10-09T10:07:57.670Z,10.53
2022-10-09T10:11:03.451Z,12.88
2022-10-09T10:14:08.032Z,10.40
2022-10-09T10:17:26.666Z,11.93
2022-10-09T10:20:31.174Z,12.93
2022-10-09T10:23:37.032Z,11.43
2022-10-09T10:27:12.398Z,18.52
2022-10-09T10:30:17.168Z,14.82
2022-10-09T10:33:23.274Z,13.27
2022-10-09T10:36:28.200Z,9.80
2022-10-09T10:39:52.902Z,9.20
2022-10-09T10:43:05.543Z,8.25
2022-10-09T10:46:12.522Z,8.80
2022-10-09T10:49:20.131Z,12.18
2022-10-09T10:53:02.804Z,11.85
2022-10-09T10:56:24.174Z,9.43
2022-10-09T10:59:39.497Z,8.95
2022-10-09T11:03:21.087Z,8.65
2022-10-09T11:06:33.839Z,8.85
2022-10-09T11:09:42.587Z,8.40
2022-10-09T11:12:51.122Z,10.07
2022-10-09T11:16:21.224Z,9.85
2022-10-09T11:19:48.439Z,9.63
2022-10-09T11:23:06.422Z,10.23
2022-10-09T11:26:17.756Z,8.75
2022-10-09T11:29:40.114Z,12.60
2022-10-09T11:32:54.802Z,12.98
2022-10-09T11:36:10.639Z,11.27
2022-10-09T11:39:20.057Z,9.65
2022-10-09T11:42:25.297Z,10.45
2022-10-09T11:45:43.161Z,10.10
2022-10-09T11:48:54.904Z,8.98
2022-10-09T11:52:35.943Z,10.73
2022-10-09T11:55:38.878Z,11.02
2022-10-09T11:58:41.544Z,11.07
2022-10-09T12:01:47.719Z,8.67
2022-10-09T12:04:55.366Z,10.25
2022-10-09T12:08:16.982Z,7.95
2022-10-09T12:11:23.156Z,8.90
2022-10-09T12:14:27.190Z,9.98
2022-10-09T12:17:29.937Z,7.67
2022-10-09T12:20:45.260Z,10.05
2022-10-09T12:23:48.237Z,9.73
2022-10-09T12:26:51.807Z,9.07
2022-10-09T12:30:11.699Z,7.82
2022-10-09T12:33:14.339Z,9.77
2022-10-09T12:36:25.979Z,9.85
2022-10-09T12:39:29.147Z,8.82
2022-10-09T12:42:32.460Z,7.75
2022-10-09T12:45:42.765Z,7.62
2022-10-09T12:48:46.301Z,12.83
2022-10-09T12:51:57.196Z,9.45
2022-10-09T12:55:01.292Z,8.25
2022-10-09T12:58:07.947Z,9.65
2022-10-09T13:01:14.203Z,7.65
2022-10-09T13:04:44.279Z,8.87
2022-10-09T13:07:53.944Z,11.50
2022-10-09T13:11:27.832Z,8.82
2022-10-09T13:14:45.965Z,8.32
2022-10-09T13:17:48.740Z,10.02
2022-10-09T13:21:02.106Z,8.50
2022-10-09T13:24:12.038Z,8.38
2022-10-09T13:27:14.976Z,8.68
2022-10-09T13:30:17.932Z,9.05
2022-10-09T13:33:21.017Z,7.20
2022-10-09T13:36:23.607Z,7.83
2022-10-09T13:39:26.414Z,9.98
2022-10-09T13:42:32.762Z,13.85
2022-10-09T13:45:35.819Z,8.43
2022-10-09T13:48:39.526Z,11.45
2022-10-09T13:51:42.846Z,10.70
2022-10-09T13:54:46.725Z,12.05
2022-10-09T13:57:49.780Z,9.65
2022-10-09T14:00:53.870Z,7.40
2022-10-09T14:03:56.573Z,7.90
2022-10-09T14:06:59.426Z,10.60
2022-10-09T14:10:02.340Z,8.75
2022-10-09T14:13:05.269Z,11.57
2022-10-09T14:16:08.933Z,9.80
2022-10-09T14:19:11.830Z,9.80
2022-10-09T14:22:15.089Z,7.40
2022-10-09T14:25:17.961Z,9.20
2022-10-09T14:28:20.782Z,7.25
2022-10-09T14:31:23.280Z,11.60
2022-10-09T14:34:26.152Z,5.90
2022-10-09T14:37:41.026Z,10.97
2022-10-09T14:40:45.195Z,8.15
2022-10-09T14:43:48.904Z,8.13
2022-10-09T14:46:51.711Z,7.12
2022-10-09T14:49:54.177Z,6.43
2022-10-09T14:52:57.258Z,7.00
2022-10-09T14:56:03.892Z,8.18
2022-10-09T14:59:06.702Z,6.57
2022-10-09T15:02:13.350Z,9.35
2022-10-09T15:05:16.543Z,7.87
2022-10-09T15:08:19.623Z,7.80
2022-10-09T15:11:23.347Z,7.55
2022-10-09T15:14:26.253Z,7.05
2022-10-09T15:17:29.004Z,10.55
2022-10-09T15:20:33.368Z,13.90
2022-10-09T15:23:36.142Z,10.00
2022-10-09T15:26:38.715Z,8.23
2022-10-09T15:29:42.002Z,6.45
2022-10-09T15:32:44.651Z,5.95
2022-10-09T15:35:47.456Z,6.85
2022-10-09T15:38:50.204Z,5.80
2022-10-09T15:41:53.146Z,7.90
2022-10-09T15:44:55.723Z,6.07
2022-10-09T15:47:58.582Z,7.85
2022-10-09T15:51:06.334Z,5.30
2022-10-09T15:54:10.753Z,9.00
2022-10-09T15:57:13.256Z,5.90
2022-10-09T16:00:16.170Z,9.13
2022-10-09T16:03:19.334Z,5.20
2022-10-09T16:06:23.116Z,9.80
2022-10-09T16:09:26.439Z,7.57
2022-10-09T16:12:28.978Z,6.35
2022-10-09T16:15:31.808Z,8.35
2022-10-09T16:18:34.547Z,10.40
2022-10-09T16:21:37.791Z,8.40
2022-10-09T16:24:40.407Z,6.03
2022-10-09T16:27:43.198Z,8.70
2022-10-09T16:30:45.737Z,7.37
2022-10-09T16:33:48.809Z,7.57
2022-10-09T16:36:51.372Z,6.55
2022-10-09T16:39:54.152Z,7.20
2022-10-09T16:42:57.309Z,6.82
2022-10-09T16:46:19.187Z,7.10
2022-10-09T16:49:24.305Z,7.45
2022-10-09T16:52:28.615Z,6.47
2022-10-09T16:55:31.125Z,9.00
2022-10-09T16:58:34.424Z,7.00
2022-10-09T17:01:38.129Z,7.70
2022-10-09T17:04:41.942Z,7.62
2022-10-09T17:07:44.421Z,5.32
2022-10-09T17:10:47.458Z,7.20
2022-10-09T17:13:52.761Z,5.62
2022-10-09T17:16:55.586Z,5.43
2022-10-09T17:19:59.082Z,6.35
2022-10-09T17:23:02.264Z,6.97
2022-10-09T17:26:19.154Z,6.20
2022-10-09T17:29:22.675Z,7.50
2022-10-09T17:32:27.262Z,5.95
2022-10-09T17:35:30.176Z,6.03
2022-10-09T17:38:32.760Z,5.82
2022-10-09T17:41:35.609Z,6.50
2022-10-09T17:44:38.228Z,6.80
2022-10-09T17:47:41.046Z,6.65
2022-10-09T17:50:54.309Z,7.20
2022-10-09T17:57:12.295Z,5.30
2022-10-09T18:00:19.670Z,7.22
2022-10-09T18:03:24.650Z,7.40
2022-10-09T18:06:28.050Z,5.55
2022-10-09T18:09:30.852Z,5.82
2022-10-09T18:12:33.469Z,6.23
2022-10-09T18:15:41.472Z,6.85
2022-10-09T18:18:46.161Z,7.37
2022-10-09T18:21:50.057Z,5.20
2022-10-09T18:24:52.758Z,8.75
2022-10-09T18:27:55.586Z,8.17
2022-10-09T18:30:58.784Z,6.85
2022-10-09T18:34:01.993Z,6.00
2022-10-09T18:37:06.003Z,6.22
2022-10-09T18:40:09.125Z,5.93
2022-10-09T18:43:14.807Z,5.27
2022-10-09T18:46:20.529Z,5.40
2022-10-09T18:49:29.661Z,5.93
2022-10-09T18:52:33.983Z,6.57
2022-10-09T18:55:36.536Z,5.90
2022-10-09T18:58:40.858Z,9.53
2022-10-09T19:01:43.826Z,6.78
2022-10-09T19:04:46.554Z,4.78
2022-10-09T19:07:49.446Z,5.37
2022-10-09T19:10:52.993Z,5.53
2022-10-09T19:13:56.093Z,5.03
2022-10-09T19:16:58.908Z,6.15
2022-10-09T19:20:01.651Z,7.25
2022-10-09T19:23:04.679Z,7.35
2022-10-09T19:26:07.243Z,7.70
2022-10-09T19:29:10.387Z,10.13
2022-10-09T19:32:13.347Z,10.13
2022-10-09T19:35:16.219Z,7.18
2022-10-09T19:38:19.193Z,6.93
2022-10-09T19:41:22.015Z,7.60
2022-10-09T19:44:24.701Z,6.17
2022-10-09T19:47:27.541Z,5.72
2022-10-09T19:50:33.635Z,5.25
2022-10-09T19:53:36.554Z,5.32
2022-10-09T19:56:40.098Z,5.15
2022-10-09T19:59:42.937Z,9.03
2022-10-09T20:02:45.486Z,6.15
2022-10-09T20:05:48.720Z,9.80
2022-10-09T20:08:51.461Z,4.82
2022-10-09T20:11:54.298Z,4.57
2022-10-09T20:14:56.874Z,4.07
2022-10-09T20:18:02.930Z,4.70
2022-10-09T20:21:05.691Z,4.78
2022-10-09T20:24:08.623Z,6.45
2022-10-09T20:27:11.118Z,7.43
2022-10-09T20:30:14.552Z,5.13
2022-10-09T20:33:17.329Z,4.70
2022-10-09T20:36:30.047Z,7.03
2022-10-09T20:39:32.682Z,5.80
2022-10-09T20:42:35.521Z,5.35
2022-10-09T20:45:42.972Z,5.93
2022-10-09T20:48:46.045Z,5.45
2022-10-09T20:51:48.811Z,5.80
2022-10-09T20:54:51.711Z,5.03
2022-10-09T20:57:55.004Z,4.93
2022-10-09T21:00:58.043Z,7.40
2022-10-09T21:04:00.823Z,4.97
2022-10-09T21:07:03.560Z,5.20
2022-10-09T21:10:06.867Z,6.55
2022-10-09T21:13:10.003Z,9.23
2022-10-09T21:16:14.892Z,7.10
2022-10-09T21:19:18.084Z,11.43
2022-10-09T21:22:20.745Z,6.90
2022-10-09T21:25:23.542Z,5.22
2022-10-09T21:28:26.541Z,5.25
2022-10-09T21:31:31.036Z,8.37
2022-10-09T21:34:34.009Z,6.97
2022-10-09T21:37:37.615Z,5.57
2022-10-09T21:40:41.205Z,6.40
2022-10-09T21:43:44.132Z,5.80
2022-10-09T21:46:46.639Z,6.97
2022-10-09T21:49:49.509Z,4.30
2022-10-09T21:52:52.401Z,4.28
2022-10-09T21:55:55.425Z,4.18
2022-10-09T21:58:58.155Z,6.37
2022-10-09T22:02:00.967Z,5.27
2022-10-09T22:05:04.056Z,6.95
2022-10-09T22:08:06.668Z,5.82
2022-10-09T22:11:10.551Z,5.30
2022-10-09T22:14:13.447Z,4.47
2022-10-09T22:17:20.165Z,5.00
2022-10-09T22:20:22.693Z,4.35
2022-10-09T22:23:25.600Z,4.62
2022-10-09T22:26:28.216Z,3.65
2022-10-09T22:29:31.546Z,4.45
2022-10-09T22:32:34.166Z,3.50
2022-10-09T22:35:37.172Z,5.30
2022-10-09T22:38:40.514Z,5.32
2022-10-09T22:41:43.428Z,4.35
2022-10-09T22:44:45.964Z,4.35
2022-10-09T22:47:49.165Z,4.50
2022-10-09T22:50:51.889Z,4.78
2022-10-09T22:53:55.903Z,3.35
2022-10-09T22:56:58.409Z,4.93
2022-10-09T23:00:01.328Z,3.80
2022-10-09T23:03:04.091Z,8.50
2022-10-09T23:06:18.668Z,3.87
2022-10-09T23:09:22.666Z,3.95
2022-10-09T23:12:25.521Z,6.05
2022-10-09T23:15:28.052Z,5.53
2022-10-09T23:18:31.357Z,4.37
2022-10-09T23:21:34.943Z,5.00
2022-10-09T23:24:37.796Z,4.62
2022-10-09T23:27:40.342Z,4.03
2022-10-09T23:30:43.942Z,7.75
2022-10-09T23:33:47.312Z,3.50
2022-10-09T23:36:50.196Z,5.28
2022-10-09T23:39:52.833Z,5.12
2022-10-09T23:42:55.618Z,4.35
2022-10-09T23:46:00.212Z,4.05
2022-10-09T23:49:04.545Z,4.00
2022-10-09T23:52:07.067Z,4.57
2022-10-09T23:55:10.133Z,5.60
2022-10-09T23:58:17.190Z,4.62
